createdAt,value
2019-05-16T00:01:19.298Z,61.39
2019-05-16T00:03:49.155Z,61.74
2019-05-16T00:06:18.601Z,61.35
2019-05-16T00:08:48.246Z,61.39
2019-05-16T00:11:18.059Z,61.39
2019-05-16T00:13:48.924Z,61.31
2019-05-16T00:16:18.795Z,61.28
2019-05-16T00:18:48.381Z,61.26
2019-05-16T00:21:18.128Z,61.26
2019-05-16T00:23:48.618Z,61.40
2019-05-16T00:26:19.732Z,61.68
2019-05-16T00:28:49.235Z,61.38
2019-05-16T00:31:18.523Z,61.34
2019-05-16T00:33:48.685Z,61.90
2019-05-16T00:36:19.349Z,61.72
2019-05-16T00:38:48.702Z,62.12
2019-05-16T00:41:18.170Z,61.66
2019-05-16T00:43:48.508Z,62.08
2019-05-16T00:46:20.051Z,61.96
2019-05-16T00:48:49.647Z,61.91
2019-05-16T00:51:19.105Z,62.39
2019-05-16T00:53:48.502Z,62.05
2019-05-16T00:56:18.795Z,61.67
2019-05-16T00:58:48.888Z,62.09
2019-05-16T01:01:18.969Z,62.19
2019-05-16T01:03:48.599Z,62.17
2019-05-16T01:06:22.624Z,62.28
2019-05-16T01:08:49.043Z,62.01
2019-05-16T01:11:18.736Z,62.06
2019-05-16T01:13:48.691Z,62.49
2019-05-16T01:16:18.742Z,62.50
2019-05-16T01:18:48.784Z,62.81
2019-05-16T01:21:18.751Z,62.23
2019-05-16T01:23:48.360Z,62.40
2019-05-16T01:26:18.572Z,62.42
2019-05-16T01:28:48.529Z,62.15
2019-05-16T01:31:19.153Z,62.20
2019-05-16T01:33:48.784Z,61.77
2019-05-16T01:36:31.810Z,61.67
2019-05-16T01:38:49.080Z,61.26
2019-05-16T01:41:18.328Z,61.22
2019-05-16T01:43:48.339Z,61.08
2019-05-16T01:46:18.245Z,61.52
2019-05-16T01:48:48.542Z,61.92
2019-05-16T01:51:18.605Z,62.37
2019-05-16T01:53:49.043Z,62.38
2019-05-16T01:56:18.356Z,62.61
2019-05-16T01:58:49.050Z,62.69
2019-05-16T02:01:19.239Z,62.87
2019-05-16T02:03:49.188Z,62.87
2019-05-16T02:06:18.595Z,62.88
2019-05-16T02:08:48.729Z,62.72
2019-05-16T02:11:18.355Z,62.92
2019-05-16T02:13:48.472Z,62.91
2019-05-16T02:16:18.798Z,62.61
2019-05-16T02:18:48.858Z,62.58
2019-05-16T02:21:18.483Z,62.84
2019-05-16T02:23:49.011Z,62.87
2019-05-16T02:26:19.293Z,62.92
2019-05-16T02:28:50.728Z,62.86
2019-05-16T02:31:22.796Z,62.82
2019-05-16T02:33:51.229Z,62.94
2019-05-16T02:36:21.761Z,62.93
2019-05-16T02:38:55.523Z,63.08
2019-05-16T02:41:23.469Z,62.67
2019-05-16T02:43:52.754Z,62.54
2019-05-16T02:46:22.127Z,62.56
2019-05-16T02:48:52.049Z,62.40
2019-05-16T02:51:21.720Z,62.57
2019-05-16T02:53:51.356Z,62.21
2019-05-16T02:56:21.291Z,62.46
2019-05-16T02:58:52.182Z,62.37
2019-05-16T03:01:22.136Z,62.54
2019-05-16T03:03:53.019Z,62.34
2019-05-16T03:06:22.500Z,62.27
2019-05-16T03:08:54.341Z,62.42
2019-05-16T03:11:24.847Z,62.42
2019-05-16T03:13:55.489Z,62.20
2019-05-16T03:16:26.928Z,62.75
2019-05-16T03:18:56.687Z,62.66
2019-05-16T03:21:26.671Z,62.93
2019-05-16T03:23:56.155Z,62.86
2019-05-16T03:26:25.455Z,62.49
2019-05-16T03:28:54.730Z,62.22
2019-05-16T03:31:25.261Z,62.59
2019-05-16T03:33:59.756Z,62.06
2019-05-16T03:36:26.009Z,62.69
2019-05-16T03:38:55.350Z,63.00
2019-05-16T03:41:25.716Z,62.75
2019-05-16T03:43:54.989Z,62.20
2019-05-16T03:46:24.364Z,62.46
2019-05-16T03:48:53.657Z,62.24
2019-05-16T03:51:22.906Z,62.47
2019-05-16T03:53:52.203Z,62.65
2019-05-16T03:56:22.062Z,62.93
2019-05-16T03:58:51.531Z,63.04
2019-05-16T04:01:21.188Z,62.72
2019-05-16T04:03:51.370Z,62.26
2019-05-16T04:06:22.155Z,62.55
2019-05-16T04:08:51.673Z,62.25
2019-05-16T04:11:23.315Z,62.34
2019-05-16T04:13:51.954Z,62.01
2019-05-16T04:16:21.275Z,61.90
2019-05-16T04:18:51.366Z,61.55
2019-05-16T04:21:21.982Z,61.55
2019-05-16T04:23:51.598Z,61.92
2019-05-16T04:26:21.819Z,61.46
2019-05-16T04:28:51.748Z,61.30
2019-05-16T04:31:22.776Z,61.32
2019-05-16T04:33:52.223Z,61.73
2019-05-16T04:36:21.619Z,61.55
2019-05-16T04:38:51.603Z,61.55
2019-05-16T04:41:21.441Z,61.05
2019-05-16T04:43:51.121Z,61.21
2019-05-16T04:46:21.598Z,61.10
2019-05-16T04:48:52.093Z,60.26
2019-05-16T04:51:23.064Z,60.65
2019-05-16T04:53:53.325Z,60.42
2019-05-16T04:56:24.657Z,60.46
2019-05-16T04:58:55.450Z,60.20
2019-05-16T05:01:25.504Z,60.51
2019-05-16T05:04:06.710Z,60.53
2019-05-16T05:06:31.297Z,60.21
2019-05-16T05:09:03.509Z,59.79
2019-05-16T05:11:33.749Z,60.06
2019-05-16T05:14:05.350Z,59.88
2019-05-16T05:16:35.465Z,60.45
2019-05-16T05:19:05.356Z,59.42
2019-05-16T05:21:35.057Z,59.32
2019-05-16T05:24:04.460Z,57.69
2019-05-16T05:26:33.987Z,57.29
2019-05-16T05:29:04.374Z,57.82
2019-05-16T05:31:35.519Z,57.82
2019-05-16T05:34:05.404Z,58.06
2019-05-16T05:36:34.684Z,58.06
2019-05-16T05:39:11.591Z,57.95
2019-05-16T05:41:40.131Z,57.64
2019-05-16T05:44:10.698Z,58.32
2019-05-16T05:46:40.664Z,57.18
2019-05-16T05:49:11.876Z,57.50
2019-05-16T05:51:41.572Z,57.29
2019-05-16T05:54:11.142Z,58.04
2019-05-16T05:56:41.066Z,57.89
2019-05-16T05:59:11.352Z,57.69
2019-05-16T06:01:41.023Z,57.80
2019-05-16T06:04:10.680Z,57.79
2019-05-16T06:06:41.859Z,57.96
2019-05-16T06:09:25.373Z,57.58
2019-05-16T06:11:42.167Z,58.54
2019-05-16T06:14:11.433Z,58.35
2019-05-16T06:16:40.704Z,58.35
2019-05-16T06:19:10.963Z,58.43
2019-05-16T06:21:44.609Z,57.86
2019-05-16T06:24:11.499Z,57.97
2019-05-16T06:26:40.800Z,58.17
2019-05-16T06:29:10.572Z,58.31
2019-05-16T06:31:41.514Z,58.00
2019-05-16T06:34:14.990Z,57.97
2019-05-16T06:36:42.226Z,57.27
2019-05-16T06:39:12.980Z,57.33
2019-05-16T06:41:42.303Z,57.53
2019-05-16T06:44:11.602Z,57.58
2019-05-16T06:46:56.472Z,57.91
2019-05-16T06:49:12.063Z,57.68
2019-05-16T06:51:41.335Z,57.11
2019-05-16T06:54:10.640Z,56.36
2019-05-16T06:56:40.239Z,56.34
2019-05-16T06:59:10.333Z,56.23
2019-05-16T07:01:40.474Z,56.07
2019-05-16T07:04:10.607Z,55.46
2019-05-16T07:06:54.785Z,54.63
2019-05-16T07:09:10.985Z,53.22
2019-05-16T07:11:40.286Z,52.96
2019-05-16T07:14:10.618Z,53.30
2019-05-16T07:16:40.636Z,54.67
2019-05-16T07:19:10.575Z,54.48
2019-05-16T07:21:41.704Z,54.83
2019-05-16T07:24:11.144Z,55.04
2019-05-16T07:26:41.856Z,55.67
2019-05-16T07:29:11.248Z,55.61
2019-05-16T07:31:40.709Z,55.06
2019-05-16T07:34:11.583Z,53.49
2019-05-16T07:36:41.116Z,53.92
2019-05-16T07:39:10.959Z,53.44
2019-05-16T07:41:40.389Z,53.19
2019-05-16T07:44:11.169Z,51.29
2019-05-16T07:46:44.462Z,49.78
2019-05-16T07:49:11.663Z,49.01
2019-05-16T07:51:41.104Z,48.06
2019-05-16T07:54:10.637Z,49.47
2019-05-16T07:56:40.711Z,50.82
2019-05-16T07:59:10.582Z,50.60
2019-05-16T08:01:42.919Z,51.31
2019-05-16T08:04:10.971Z,52.39
2019-05-16T08:06:41.519Z,53.43
2019-05-16T08:09:12.715Z,53.74
2019-05-16T08:11:42.149Z,53.70
2019-05-16T08:14:11.458Z,54.06
2019-05-16T08:16:41.060Z,55.15
2019-05-16T08:19:10.759Z,55.24
2019-05-16T08:21:41.135Z,56.04
2019-05-16T08:24:15.090Z,56.47
2019-05-16T08:26:43.153Z,55.53
2019-05-16T08:29:13.550Z,55.43
2019-05-16T08:31:43.413Z,54.56
2019-05-16T08:34:13.096Z,55.33
2019-05-16T08:36:42.462Z,55.39
2019-05-16T08:39:11.932Z,56.15
2019-05-16T08:41:42.472Z,55.56
2019-05-16T08:44:12.607Z,54.90
2019-05-16T08:46:42.628Z,54.48
2019-05-16T08:49:12.680Z,53.80
2019-05-16T08:51:42.796Z,53.22
2019-05-16T08:54:14.196Z,53.24
2019-05-16T08:56:44.923Z,52.97
2019-05-16T08:59:14.316Z,53.85
2019-05-16T09:01:52.128Z,53.85
2019-05-16T09:04:14.607Z,54.31
2019-05-16T09:06:43.861Z,54.42
2019-05-16T09:09:29.722Z,53.78
2019-05-16T09:11:47.555Z,54.09
2019-05-16T09:14:17.185Z,54.39
2019-05-16T09:16:47.949Z,54.39
2019-05-16T09:19:17.359Z,54.73
2019-05-16T09:21:47.553Z,55.25
2019-05-16T09:24:17.969Z,55.09
2019-05-16T09:26:47.677Z,55.22
2019-05-16T09:29:17.048Z,54.06
2019-05-16T09:32:07.397Z,55.32
2019-05-16T09:34:18.905Z,55.01
2019-05-16T09:36:48.349Z,55.51
2019-05-16T09:39:17.743Z,57.08
2019-05-16T09:41:54.447Z,57.44
2019-05-16T09:44:18.564Z,57.45
2019-05-16T09:46:48.045Z,57.19
2019-05-16T09:49:24.228Z,57.68
2019-05-16T09:51:48.335Z,57.52
2019-05-16T09:54:17.616Z,56.14
2019-05-16T09:56:46.895Z,55.70
2019-05-16T09:59:17.275Z,56.36
2019-05-16T10:01:47.823Z,55.16
2019-05-16T10:04:17.665Z,55.51
2019-05-16T10:06:47.091Z,55.21
2019-05-16T10:09:17.456Z,55.00
2019-05-16T10:11:49.472Z,56.22
2019-05-16T10:14:18.082Z,57.30
2019-05-16T10:16:47.898Z,58.55
2019-05-16T10:19:17.354Z,58.00
2019-05-16T10:21:46.715Z,59.12
2019-05-16T10:24:16.001Z,58.16
2019-05-16T10:26:47.234Z,58.12
2019-05-16T10:29:18.410Z,57.82
2019-05-16T10:31:52.908Z,59.10
2019-05-16T10:34:18.355Z,58.91
2019-05-16T10:36:47.636Z,59.15
2019-05-16T10:39:16.917Z,58.79
2019-05-16T10:41:46.753Z,58.94
2019-05-16T10:44:17.488Z,59.96
2019-05-16T10:46:47.890Z,58.29
2019-05-16T10:49:32.847Z,57.19
2019-05-16T10:51:48.561Z,58.17
2019-05-16T10:54:18.587Z,57.32
2019-05-16T10:56:48.407Z,58.69
2019-05-16T10:59:51.109Z,58.92
2019-05-16T11:01:48.799Z,59.78
2019-05-16T11:04:28.552Z,60.24
2019-05-16T11:06:49.185Z,62.92
2019-05-16T11:09:18.452Z,63.07
2019-05-16T11:11:47.858Z,64.90
2019-05-16T11:14:17.545Z,66.05
2019-05-16T11:16:47.493Z,66.23
2019-05-16T11:19:23.472Z,67.02
2019-05-16T11:21:47.950Z,67.05
2019-05-16T11:24:17.337Z,67.22
2019-05-16T11:26:47.337Z,67.30
2019-05-16T11:29:16.904Z,67.06
2019-05-16T11:31:46.917Z,67.07
2019-05-16T11:34:17.862Z,67.32
2019-05-16T11:36:47.923Z,68.21
2019-05-16T11:39:17.546Z,68.05
2019-05-16T11:41:47.495Z,69.22
2019-05-16T11:44:17.602Z,70.26
2019-05-16T11:46:48.973Z,69.58
2019-05-16T11:49:18.228Z,69.63
2019-05-16T11:51:47.527Z,70.03
2019-05-16T11:54:16.816Z,70.66
2019-05-16T11:56:46.468Z,69.94
2019-05-16T11:59:15.845Z,70.71
2019-05-16T12:01:47.480Z,69.92
2019-05-16T12:04:17.520Z,71.51
2019-05-16T12:06:47.011Z,71.17
2019-05-16T12:09:17.791Z,70.16
2019-05-16T12:11:47.447Z,71.49
2019-05-16T12:14:16.903Z,70.96
2019-05-16T12:16:47.246Z,70.43
2019-05-16T12:19:18.123Z,70.60
2019-05-16T12:21:47.744Z,71.96
2019-05-16T12:24:31.748Z,71.50
2019-05-16T12:26:48.222Z,72.40
2019-05-16T12:29:17.600Z,73.26
2019-05-16T12:31:57.482Z,73.04
2019-05-16T12:34:17.962Z,73.11
2019-05-16T12:36:47.439Z,72.63
2019-05-16T12:39:18.042Z,71.71
2019-05-16T12:41:49.111Z,72.11
2019-05-16T12:44:18.378Z,73.28
2019-05-16T12:46:47.677Z,72.95
2019-05-16T12:49:17.546Z,72.43
2019-05-16T12:51:46.961Z,72.42
2019-05-16T12:54:18.231Z,70.98
2019-05-16T12:56:48.271Z,71.57
2019-05-16T12:59:21.060Z,72.57
2019-05-16T13:01:48.862Z,72.35
2019-05-16T13:04:19.032Z,72.11
2019-05-16T13:06:48.689Z,72.66
2019-05-16T13:09:18.626Z,71.23
2019-05-16T13:11:48.154Z,70.91
2019-05-16T13:14:17.414Z,71.89
2019-05-16T13:16:47.933Z,72.05
2019-05-16T13:19:18.256Z,72.13
2019-05-16T13:21:47.735Z,73.22
2019-05-16T13:24:18.705Z,73.63
2019-05-16T13:26:48.306Z,73.33
2019-05-16T13:29:18.206Z,73.96
2019-05-16T13:31:48.132Z,75.45
2019-05-16T13:34:17.914Z,75.37
2019-05-16T13:36:47.687Z,74.34
2019-05-16T13:39:17.343Z,74.37
2019-05-16T13:41:46.683Z,73.72
2019-05-16T13:44:22.720Z,75.46
2019-05-16T13:46:46.954Z,76.53
2019-05-16T13:49:18.085Z,76.00
2019-05-16T13:51:47.450Z,76.09
2019-05-16T13:54:17.731Z,75.31
2019-05-16T13:56:48.315Z,74.45
2019-05-16T13:59:18.094Z,75.36
2019-05-16T14:01:48.473Z,75.81
2019-05-16T14:04:17.722Z,75.50
2019-05-16T14:06:47.861Z,75.70
2019-05-16T14:09:17.726Z,75.72
2019-05-16T14:11:47.142Z,74.40
2019-05-16T14:14:32.091Z,73.60
2019-05-16T14:16:47.584Z,75.46
2019-05-16T14:19:17.641Z,75.10
2019-05-16T14:21:48.002Z,75.33
2019-05-16T14:24:18.784Z,74.98
2019-05-16T14:26:48.092Z,76.72
2019-05-16T14:29:17.852Z,76.97
2019-05-16T14:31:50.555Z,77.64
2019-05-16T14:34:19.874Z,77.01
2019-05-16T14:36:49.190Z,77.49
2019-05-16T14:39:19.847Z,78.76
2019-05-16T14:41:49.346Z,78.62
2019-05-16T14:44:18.740Z,78.85
2019-05-16T14:46:47.993Z,76.93
2019-05-16T14:49:18.157Z,75.91
2019-05-16T14:51:47.935Z,77.07
2019-05-16T14:54:17.282Z,77.30
2019-05-16T14:56:47.577Z,77.62
2019-05-16T14:59:17.041Z,77.97
2019-05-16T15:01:47.294Z,77.47
2019-05-16T15:04:16.690Z,76.91
2019-05-16T15:06:47.002Z,77.87
2019-05-16T15:09:18.037Z,78.24
2019-05-16T15:11:47.311Z,78.15
2019-05-16T15:14:17.416Z,77.46
2019-05-16T15:16:51.824Z,78.29
2019-05-16T15:19:19.966Z,77.50
2019-05-16T15:21:52.072Z,77.05
2019-05-16T15:24:21.370Z,77.39
2019-05-16T15:26:52.595Z,77.40
2019-05-16T15:29:23.539Z,77.07
2019-05-16T15:31:54.421Z,77.20
2019-05-16T15:34:29.849Z,77.82
2019-05-16T15:37:00.112Z,78.51
2019-05-16T15:39:31.142Z,77.47
2019-05-16T15:42:01.837Z,77.29
2019-05-16T15:44:32.073Z,77.22
2019-05-16T15:47:02.083Z,77.36
2019-05-16T15:49:31.838Z,77.73
2019-05-16T15:52:02.295Z,77.26
2019-05-16T15:54:32.776Z,77.02
2019-05-16T15:57:02.043Z,78.03
2019-05-16T15:59:32.203Z,77.54
2019-05-16T16:02:03.256Z,78.44
2019-05-16T16:04:32.558Z,78.47
2019-05-16T16:07:01.840Z,78.83
2019-05-16T16:09:31.129Z,79.63
2019-05-16T16:12:01.502Z,78.34
2019-05-16T16:14:30.795Z,78.09
2019-05-16T16:17:02.043Z,77.79
2019-05-16T16:19:31.419Z,78.21
2019-05-16T16:22:00.765Z,78.30
2019-05-16T16:24:30.882Z,77.44
2019-05-16T16:27:00.316Z,77.73
2019-05-16T16:29:32.976Z,77.58
2019-05-16T16:32:02.017Z,77.58
2019-05-16T16:34:31.491Z,76.96
2019-05-16T16:37:00.782Z,76.59
2019-05-16T16:39:30.085Z,77.17
2019-05-16T16:41:59.357Z,77.30
2019-05-16T16:44:28.626Z,77.34
2019-05-16T16:46:57.908Z,77.54
2019-05-16T16:49:27.982Z,77.76
2019-05-16T16:51:57.542Z,78.07
2019-05-16T16:54:27.690Z,78.42
2019-05-16T16:56:57.636Z,79.03
2019-05-16T16:59:28.058Z,78.89
2019-05-16T17:01:59.487Z,78.88
2019-05-16T17:04:28.841Z,79.22
2019-05-16T17:06:58.139Z,79.31
2019-05-16T17:09:27.666Z,77.58
2019-05-16T17:11:57.970Z,78.06
2019-05-16T17:14:27.332Z,77.95
2019-05-16T17:16:57.480Z,78.15
2019-05-16T17:19:27.022Z,78.98
2019-05-16T17:22:11.972Z,79.16
2019-05-16T17:24:31.245Z,79.14
2019-05-16T17:27:01.065Z,79.59
2019-05-16T17:29:30.360Z,79.57
2019-05-16T17:32:05.757Z,79.43
2019-05-16T17:34:30.860Z,79.88
2019-05-16T17:37:00.128Z,79.34
2019-05-16T17:39:29.446Z,79.49
2019-05-16T17:41:58.986Z,78.79
2019-05-16T17:44:28.358Z,79.62
2019-05-16T17:46:57.789Z,80.77
2019-05-16T17:49:27.134Z,80.35
2019-05-16T17:51:56.790Z,80.47
2019-05-16T17:54:26.731Z,80.81
2019-05-16T17:56:56.732Z,80.07
2019-05-16T17:59:27.512Z,81.24
2019-05-16T18:01:57.062Z,80.72
2019-05-16T18:04:28.181Z,81.05
2019-05-16T18:06:59.195Z,81.46
2019-05-16T18:09:29.966Z,81.47
2019-05-16T18:11:59.289Z,81.73
2019-05-16T18:14:28.663Z,82.40
2019-05-16T18:17:02.152Z,82.91
2019-05-16T18:19:31.536Z,82.53
2019-05-16T18:22:00.858Z,82.73
2019-05-16T18:24:30.274Z,82.78
2019-05-16T18:26:59.671Z,83.15
2019-05-16T18:29:28.968Z,83.55
2019-05-16T18:31:58.284Z,83.35
2019-05-16T18:34:28.097Z,83.02
2019-05-16T18:36:57.588Z,83.97
2019-05-16T18:39:27.269Z,82.78
2019-05-16T18:41:56.724Z,82.84
2019-05-16T18:44:27.276Z,83.38
2019-05-16T18:47:04.774Z,83.67
2019-05-16T18:49:27.802Z,83.66
2019-05-16T18:51:57.115Z,83.99
2019-05-16T18:54:26.710Z,84.07
2019-05-16T18:56:57.860Z,84.16
2019-05-16T18:59:27.317Z,84.85
2019-05-16T19:01:56.701Z,84.54
2019-05-16T19:04:27.456Z,84.80
2019-05-16T19:06:59.624Z,84.93
2019-05-16T19:09:29.144Z,84.34
2019-05-16T19:11:59.209Z,83.91
2019-05-16T19:14:28.887Z,84.70
2019-05-16T19:16:58.191Z,84.87
2019-05-16T19:19:28.273Z,84.80
2019-05-16T19:21:59.538Z,84.59
2019-05-16T19:24:28.757Z,84.97
2019-05-16T19:26:58.023Z,84.57
2019-05-16T19:29:28.834Z,84.84
2019-05-16T19:31:58.134Z,84.70
2019-05-16T19:34:29.269Z,84.87
2019-05-16T19:36:58.510Z,84.57
2019-05-16T19:39:28.764Z,84.76
2019-05-16T19:41:58.160Z,84.87
2019-05-16T19:44:27.458Z,85.11
2019-05-16T19:46:58.074Z,84.64
2019-05-16T19:49:27.740Z,84.65
2019-05-16T19:51:57.138Z,84.66
2019-05-16T19:54:28.048Z,84.83
2019-05-16T19:56:57.784Z,84.56
2019-05-16T19:59:27.299Z,84.55
2019-05-16T20:01:57.031Z,84.80
2019-05-16T20:04:27.362Z,84.90
2019-05-16T20:06:57.920Z,84.90
2019-05-16T20:09:30.163Z,84.56
2019-05-16T20:11:58.225Z,85.00
2019-05-16T20:14:27.510Z,84.37
2019-05-16T20:16:56.791Z,84.57
2019-05-16T20:19:26.782Z,85.00
2019-05-16T20:21:58.115Z,84.72
2019-05-16T20:24:27.334Z,85.12
2019-05-16T20:26:57.209Z,85.47
2019-05-16T20:29:27.348Z,85.33
2019-05-16T20:31:59.507Z,84.42
2019-05-16T20:34:27.867Z,84.13
2019-05-16T20:36:57.326Z,84.47
2019-05-16T20:39:26.856Z,84.60
2019-05-16T20:41:59.689Z,84.63
2019-05-16T20:44:28.449Z,84.56
2019-05-16T20:46:57.712Z,84.62
2019-05-16T20:49:27.198Z,84.56
2019-05-16T20:51:57.940Z,84.39
2019-05-16T20:54:27.289Z,84.75
2019-05-16T20:56:57.396Z,84.54
2019-05-16T20:59:27.326Z,84.69
2019-05-16T21:01:57.506Z,84.24
2019-05-16T21:04:26.864Z,84.25
2019-05-16T21:07:10.031Z,84.41
2019-05-16T21:09:36.882Z,84.37
2019-05-16T21:12:08.300Z,84.67
2019-05-16T21:14:37.403Z,85.07
2019-05-16T21:17:06.842Z,84.63
2019-05-16T21:19:36.299Z,85.27
2019-05-16T21:22:07.341Z,85.58
2019-05-16T21:24:37.290Z,85.55
2019-05-16T21:27:06.887Z,85.85
2019-05-16T21:29:36.963Z,86.05
2019-05-16T21:32:07.375Z,86.35
2019-05-16T21:34:36.863Z,86.44
2019-05-16T21:37:14.574Z,86.39
2019-05-16T21:39:37.315Z,86.20
2019-05-16T21:42:07.813Z,86.10
2019-05-16T21:44:37.534Z,86.08
2019-05-16T21:47:06.823Z,85.68
2019-05-16T21:49:37.018Z,85.85
2019-05-16T21:52:06.951Z,85.92
2019-05-16T21:54:36.814Z,85.77
2019-05-16T21:57:07.740Z,85.46
2019-05-16T21:59:37.683Z,85.31
2019-05-16T22:02:07.381Z,85.11
2019-05-16T22:04:36.872Z,84.76
2019-05-16T22:07:07.229Z,85.26
2019-05-16T22:09:37.189Z,85.08
2019-05-16T22:12:06.927Z,85.29
2019-05-16T22:14:46.521Z,85.06
2019-05-16T22:17:16.937Z,84.62
2019-05-16T22:19:46.936Z,85.10
2019-05-16T22:22:16.565Z,85.41
2019-05-16T22:24:46.171Z,85.24
2019-05-16T22:27:17.373Z,85.15
2019-05-16T22:29:46.881Z,84.73
2019-05-16T22:32:16.826Z,84.71
2019-05-16T22:34:47.664Z,84.57
2019-05-16T22:37:17.456Z,84.59
2019-05-16T22:39:48.376Z,84.79
2019-05-16T22:42:19.508Z,84.74
2019-05-16T22:44:50.322Z,84.48
2019-05-16T22:47:21.781Z,83.98
2019-05-16T22:49:56.604Z,84.13
2019-05-16T22:52:26.584Z,84.05
2019-05-16T22:54:56.707Z,84.03
2019-05-16T22:57:26.887Z,84.22
2019-05-16T22:59:56.958Z,84.71
2019-05-16T23:02:27.417Z,84.62
2019-05-16T23:04:56.831Z,84.79
2019-05-16T23:07:27.469Z,84.95
2019-05-16T23:09:56.878Z,84.93
2019-05-16T23:12:26.616Z,85.30
2019-05-16T23:14:56.924Z,85.22
2019-05-16T23:17:26.818Z,85.17
2019-05-16T23:19:56.778Z,85.25
2019-05-16T23:22:27.427Z,84.88
2019-05-16T23:24:57.107Z,85.03
2019-05-16T23:27:27.338Z,85.25
2019-05-16T23:29:56.947Z,85.20
2019-05-16T23:32:27.082Z,85.18
2019-05-16T23:34:57.249Z,85.16
2019-05-16T23:37:27.411Z,84.79
2019-05-16T23:39:58.276Z,85.41
2019-05-16T23:42:27.579Z,85.63
2019-05-16T23:44:56.864Z,85.44
2019-05-16T23:47:26.271Z,85.29
2019-05-16T23:49:56.793Z,84.93
2019-05-16T23:52:27.328Z,85.22
2019-05-16T23:54:57.071Z,84.96
2019-05-16T23:57:26.950Z,85.15
2019-05-16T23:59:56.752Z,85.37
